Time;durP1;ratioP1;P1;durP2;ratioP2;P2;SDS_P1;SDS_P2;PMS_P1;PMS_P2;Temp;Humidity;BMP_temperature;BMP_pressure;BME280_temperature;BME280_humidity;BME280_pressure;Samples;Min_cycle;Max_cycle;Signal;HPM_P1;HPM_P2
2022/11/21 00:00:05;;;;;;;22.45;15.00;;;4.40;87.00;;;;;;5049809;28;20082;-68
2022/11/21 00:02:31;;;;;;;23.27;15.15;;;4.40;87.00;;;;;;5042306;28;20124;-68
2022/11/21 00:04:56;;;;;;;25.42;16.77;;;4.40;87.10;;;;;;5046558;28;20092;-68
2022/11/21 00:07:22;;;;;;;22.02;14.93;;;4.30;86.90;;;;;;5049800;28;20539;-68
2022/11/21 00:09:47;;;;;;;19.55;13.38;;;4.30;86.90;;;;;;5045029;28;20031;-68
2022/11/21 00:12:15;;;;;;;18.00;12.35;;;4.30;87.10;;;;;;5049150;28;20029;-69
2022/11/21 00:14:41;;;;;;;18.45;12.32;;;4.30;87.10;;;;;;5049287;28;20037;-69
2022/11/21 00:17:06;;;;;;;20.55;13.70;;;4.30;87.00;;;;;;5049690;28;20025;-69
2022/11/21 00:19:32;;;;;;;20.30;13.13;;;4.40;87.10;;;;;;5050390;28;20032;-69
2022/11/21 00:21:58;;;;;;;20.60;13.00;;;4.40;87.10;;;;;;5044415;28;20587;-69
2022/11/21 00:24:23;;;;;;;19.92;13.63;;;4.40;87.00;;;;;;5050603;28;20109;-69
2022/11/21 00:26:49;;;;;;;19.38;11.80;;;4.40;87.00;;;;;;5038251;28;20486;-68
2022/11/21 00:29:14;;;;;;;18.70;12.27;;;4.50;87.10;;;;;;5039623;28;20025;-69
2022/11/21 00:31:40;;;;;;;21.38;13.43;;;4.50;87.00;;;;;;5042646;28;20029;-70
2022/11/21 00:34:05;;;;;;;18.80;12.32;;;4.50;86.80;;;;;;5047990;28;20100;-69
2022/11/21 00:36:31;;;;;;;26.05;16.95;;;4.50;86.70;;;;;;5045178;28;20021;-70
2022/11/21 00:38:56;;;;;;;20.60;13.90;;;4.40;86.70;;;;;;5047772;28;20520;-70
2022/11/21 00:41:22;;;;;;;21.92;13.95;;;4.40;86.90;;;;;;5046024;28;20559;-69
2022/11/21 00:43:47;;;;;;;21.77;14.18;;;4.40;86.90;;;;;;5044778;28;20117;-69
2022/11/21 00:46:13;;;;;;;19.73;12.43;;;4.40;86.90;;;;;;5047281;28;20053;-70
2022/11/21 00:48:38;;;;;;;20.63;12.52;;;4.50;86.90;;;;;;5049505;28;20032;-70
2022/11/21 00:51:04;;;;;;;20.35;13.82;;;4.50;86.80;;;;;;5047704;28;20023;-70
2022/11/21 00:53:30;;;;;;;21.58;14.57;;;4.50;86.60;;;;;;5035473;28;20094;-68
2022/11/21 00:55:56;;;;;;;22.83;15.23;;;4.50;86.50;;;;;;5047192;28;20109;-69
2022/11/21 00:58:22;;;;;;;22.55;14.60;;;4.40;86.30;;;;;;5034366;28;20027;-69
2022/11/21 01:00:47;;;;;;;21.67;13.55;;;4.40;86.70;;;;;;5049888;28;20029;-68
2022/11/21 01:03:13;;;;;;;20.45;12.20;;;4.40;86.80;;;;;;5035682;28;20025;-69
2022/11/21 01:05:38;;;;;;;21.50;13.07;;;4.50;86.80;;;;;;5043222;28;20187;-69
2022/11/21 01:08:04;;;;;;;19.67;13.18;;;4.50;86.60;;;;;;5038551;28;20034;-69
2022/11/21 01:10:29;;;;;;;20.05;12.93;;;4.50;86.50;;;;;;5049595;28;20078;-69
2022/11/21 01:12:55;;;;;;;16.08;10.40;;;4.50;86.30;;;;;;5045386;28;20033;-69
2022/11/21 01:15:20;;;;;;;22.65;14.60;;;4.50;86.20;;;;;;5064389;28;20064;-69
2022/11/21 01:17:46;;;;;;;20.70;13.52;;;4.50;86.20;;;;;;5043790;28;20029;-69
2022/11/21 01:20:12;;;;;;;18.90;12.30;;;4.50;86.40;;;;;;5048475;28;20028;-69
2022/11/21 01:22:37;;;;;;;20.92;13.38;;;4.50;86.20;;;;;;5042749;28;20036;-69
2022/11/21 01:25:03;;;;;;;21.15;13.80;;;4.40;86.10;;;;;;5041752;28;20391;-68
2022/11/21 01:27:29;;;;;;;22.23;14.60;;;4.40;86.30;;;;;;5043242;28;20047;-68
2022/11/21 01:29:54;;;;;;;19.98;13.45;;;4.40;86.50;;;;;;5038320;28;20062;-68
2022/11/21 01:32:20;;;;;;;25.73;15.93;;;4.40;86.30;;;;;;5039313;28;20067;-67
2022/11/21 01:34:45;;;;;;;23.05;13.60;;;4.30;86.30;;;;;;5039379;28;20033;-67
2022/11/21 01:37:11;;;;;;;24.08;15.30;;;4.40;86.50;;;;;;5034586;28;20029;-68
2022/11/21 01:39:36;;;;;;;20.15;13.13;;;4.40;86.50;;;;;;5041281;28;20025;-68
2022/11/21 01:42:02;;;;;;;23.63;15.05;;;4.40;86.30;;;;;;5039258;28;20052;-68
2022/11/21 01:44:49;;;;;;;17.38;11.30;;;4.40;86.40;;;;;;5044938;28;20028;-68
2022/11/21 01:47:15;;;;;;;27.55;16.90;;;4.40;86.40;;;;;;5045712;28;20104;-69
2022/11/21 01:49:41;;;;;;;21.38;14.13;;;4.40;86.20;;;;;;5043955;28;20428;-69
2022/11/21 01:52:24;;;;;;;29.08;18.58;;;4.40;86.30;;;;;;5039784;28;20017;-69
2022/11/21 01:55:01;;;;;;;22.63;14.32;;;4.30;86.20;;;;;;5035513;28;20377;-70
2022/11/21 01:57:32;;;;;;;23.08;14.43;;;4.30;86.50;;;;;;5049424;28;20127;-69
2022/11/21 02:00:04;;;;;;;23.02;14.55;;;4.30;86.50;;;;;;5037037;28;20033;-69
2022/11/21 02:02:33;;;;;;;20.85;13.07;;;4.30;86.30;;;;;;5040934;28;20139;-69
2022/11/21 02:05:01;;;;;;;19.88;12.82;;;4.30;86.30;;;;;;5042715;28;20029;-69
2022/11/21 02:07:31;;;;;;;18.30;12.23;;;4.40;86.30;;;;;;5048400;28;20090;-69
2022/11/21 02:10:01;;;;;;;21.83;13.57;;;4.40;86.10;;;;;;5042348;28;20141;-70
2022/11/21 02:12:40;;;;;;;21.95;14.23;;;4.40;86.10;;;;;;5039554;28;20179;-69
2022/11/21 02:15:06;;;;;;;22.77;14.77;;;4.40;86.10;;;;;;5044009;28;20226;-69
2022/11/21 02:17:32;;;;;;;21.65;14.15;;;4.40;86.10;;;;;;5047255;28;20021;-70
2022/11/21 02:20:06;;;;;;;23.83;15.95;;;4.40;86.00;;;;;;5042543;28;20093;-68
2022/11/21 02:22:44;;;;;;;21.45;13.82;;;4.40;86.00;;;;;;5046599;28;20021;-69
2022/11/21 02:25:33;;;;;;;22.63;14.43;;;4.40;86.10;;;;;;5043371;28;20391;-69
2022/11/21 02:28:06;;;;;;;18.63;11.82;;;4.40;86.20;;;;;;5047757;28;20017;-69
2022/11/21 02:30:33;;;;;;;;;;;4.40;86.20;;;;;;5042035;28;20025;-69
2022/11/21 02:32:59;;;;;;;19.77;12.45;;;4.40;86.00;;;;;;5044636;28;20011;-69
2022/11/21 02:35:25;;;;;;;27.08;18.00;;;4.40;86.20;;;;;;5042209;28;20116;-68
2022/11/21 02:37:57;;;;;;;26.58;17.33;;;4.30;86.10;;;;;;5041175;28;20074;-69
2022/11/21 02:40:26;;;;;;;24.63;16.02;;;4.20;86.30;;;;;;5046672;28;20029;-69
2022/11/21 02:43:00;;;;;;;24.48;15.98;;;4.20;86.50;;;;;;5044082;28;20025;-68
2022/11/21 02:45:30;;;;;;;23.30;15.27;;;4.20;86.60;;;;;;5043473;28;20040;-70
2022/11/21 02:47:56;;;;;;;23.10;14.95;;;4.20;86.60;;;;;;5044480;28;20025;-69
2022/11/21 02:50:31;;;;;;;29.08;18.27;;;4.20;86.60;;;;;;5047052;28;20044;-68
2022/11/21 02:52:57;;;;;;;24.50;15.90;;;4.20;86.50;;;;;;5043731;28;20028;-69
2022/11/21 02:55:24;;;;;;;25.63;15.35;;;4.20;86.50;;;;;;5044106;28;20376;-68
2022/11/21 02:57:50;;;;;;;21.17;13.90;;;4.20;86.50;;;;;;5047616;28;20028;-68
2022/11/21 03:00:16;;;;;;;26.77;16.80;;;4.20;86.50;;;;;;5045834;28;20099;-70
2022/11/21 03:02:41;;;;;;;23.98;15.13;;;4.20;86.40;;;;;;5033728;28;20219;-69
2022/11/21 03:05:10;;;;;;;28.17;17.80;;;4.20;86.60;;;;;;5042211;28;20126;-68
2022/11/21 03:07:35;;;;;;;24.83;15.50;;;4.10;86.50;;;;;;5040332;28;20025;-68
2022/11/21 03:10:01;;;;;;;30.80;19.35;;;4.10;86.70;;;;;;5051864;28;20082;-68
2022/11/21 03:12:27;;;;;;;32.20;20.35;;;4.00;86.70;;;;;;5041915;28;20076;-68
2022/11/21 03:14:52;;;;;;;31.60;19.50;;;3.90;86.80;;;;;;5045288;28;20444;-69
2022/11/21 03:17:18;;;;;;;29.58;17.63;;;3.80;86.90;;;;;;5047928;28;20467;-69
2022/11/21 03:19:44;;;;;;;23.88;14.90;;;3.80;87.30;;;;;;5044932;28;20487;-68
2022/11/21 03:22:11;;;;;;;31.58;18.33;;;3.90;87.50;;;;;;5045887;28;20032;-68
2022/11/21 03:24:37;;;;;;;31.45;18.25;;;3.80;87.50;;;;;;5049028;28;20017;-70
2022/11/21 03:27:02;;;;;;;28.10;17.13;;;3.80;87.60;;;;;;5053738;28;20679;-68
2022/11/21 03:29:28;;;;;;;28.90;17.13;;;3.80;87.60;;;;;;5044333;28;20017;-69
2022/11/21 03:31:53;;;;;;;34.92;19.13;;;3.90;87.60;;;;;;5047179;28;20425;-69
2022/11/21 03:34:19;;;;;;;29.58;17.13;;;3.90;87.50;;;;;;5044543;28;20464;-69
2022/11/21 03:36:44;;;;;;;32.55;18.15;;;3.80;87.40;;;;;;5052190;28;20079;-69
2022/11/21 03:39:10;;;;;;;28.92;16.65;;;3.80;87.40;;;;;;5048880;28;20083;-69
2022/11/21 03:41:35;;;;;;;31.30;17.67;;;3.90;87.60;;;;;;5046333;28;20053;-70
2022/11/21 03:44:06;;;;;;;32.08;18.42;;;3.80;87.70;;;;;;5047593;28;20024;-69
2022/11/21 03:46:34;;;;;;;30.60;17.42;;;3.90;87.80;;;;;;5050463;28;20017;-70
2022/11/21 03:49:00;;;;;;;29.83;16.77;;;3.90;87.60;;;;;;5044619;28;20024;-69
2022/11/21 03:51:26;;;;;;;27.08;16.33;;;3.90;87.60;;;;;;5044390;28;20025;-71
2022/11/21 03:53:52;;;;;;;30.92;15.88;;;4.00;87.50;;;;;;5042000;28;20043;-70
2022/11/21 03:56:18;;;;;;;31.58;15.82;;;4.00;87.40;;;;;;5051355;28;20123;-69
2022/11/21 03:58:44;;;;;;;30.67;18.23;;;4.00;87.30;;;;;;5046045;28;20045;-70
2022/11/21 04:01:11;;;;;;;28.05;17.17;;;4.00;87.20;;;;;;5049706;28;20044;-69
2022/11/21 04:03:37;;;;;;;28.05;15.13;;;4.00;87.30;;;;;;5043552;28;20030;-70
2022/11/21 04:06:03;;;;;;;30.05;14.88;;;4.10;87.10;;;;;;5047864;28;20449;-69
2022/11/21 04:08:29;;;;;;;39.85;16.95;;;4.20;87.20;;;;;;5049410;28;20103;-69
2022/11/21 04:10:55;;;;;;;39.47;15.68;;;4.20;87.00;;;;;;5042048;28;20025;-69
2022/11/21 04:13:21;;;;;;;31.67;15.38;;;4.20;87.00;;;;;;5049556;28;20025;-69
2022/11/21 04:15:46;;;;;;;26.02;13.23;;;4.20;86.80;;;;;;5047224;28;20033;-68
2022/11/21 04:18:12;;;;;;;30.30;13.52;;;4.20;86.80;;;;;;5051728;28;20091;-68
2022/11/21 04:20:38;;;;;;;27.15;14.77;;;4.20;86.70;;;;;;5043540;28;20013;-67
2022/11/21 04:23:04;;;;;;;24.92;15.15;;;4.20;86.70;;;;;;5048494;28;20487;-68
2022/11/21 04:25:30;;;;;;;30.45;16.10;;;4.20;86.80;;;;;;5043368;28;20075;-69
2022/11/21 04:27:56;;;;;;;33.88;17.73;;;4.20;86.90;;;;;;5043933;28;20075;-69
2022/11/21 04:30:22;;;;;;;33.10;18.23;;;4.20;87.10;;;;;;5046042;28;20111;-69
2022/11/21 04:32:50;;;;;;;26.13;15.13;;;4.20;87.90;;;;;;5050656;28;20050;-68
2022/11/21 04:35:16;;;;;;;31.50;17.33;;;4.20;87.20;;;;;;5047776;28;20186;-67
2022/11/21 04:37:41;;;;;;;29.00;17.02;;;4.10;87.10;;;;;;5044475;28;20103;-69
2022/11/21 04:40:07;;;;;;;33.72;19.20;;;4.20;87.30;;;;;;5044643;28;20434;-69
2022/11/21 04:42:33;;;;;;;33.78;18.23;;;4.00;87.40;;;;;;5049392;28;20033;-69
2022/11/21 04:44:58;;;;;;;30.45;17.10;;;4.00;87.80;;;;;;5043294;28;20021;-68
2022/11/21 04:47:24;;;;;;;30.73;17.13;;;4.10;87.80;;;;;;5049432;28;20041;-69
2022/11/21 04:49:49;;;;;;;29.55;16.05;;;4.10;87.70;;;;;;5044766;28;20392;-69
2022/11/21 04:52:15;;;;;;;30.75;16.90;;;4.10;87.60;;;;;;5047076;28;20033;-68
2022/11/21 04:54:40;;;;;;;29.63;15.25;;;4.10;87.70;;;;;;5049330;28;20032;-68
2022/11/21 04:57:06;;;;;;;23.50;13.52;;;4.10;87.70;;;;;;5043970;28;20034;-69
2022/11/21 04:59:32;;;;;;;28.77;15.50;;;4.10;87.70;;;;;;5042900;28;20385;-69
2022/11/21 05:01:57;;;;;;;35.72;18.42;;;4.10;87.70;;;;;;5038171;28;20066;-69
2022/11/21 05:04:23;;;;;;;33.70;18.40;;;4.00;88.50;;;;;;5049291;28;20048;-69
2022/11/21 05:06:48;;;;;;;31.00;18.38;;;4.00;88.00;;;;;;5044489;28;20057;-69
2022/11/21 05:09:14;;;;;;;39.60;20.27;;;3.90;88.20;;;;;;5040434;28;20036;-69
2022/11/21 05:14:25;;;;;;;40.47;20.10;;;3.80;88.60;;;;;;5030946;28;20045;-70
2022/11/21 05:16:51;;;;;;;41.08;18.33;;;3.80;88.60;;;;;;5040719;28;20126;-69
2022/11/21 05:19:17;;;;;;;33.60;16.85;;;3.80;88.70;;;;;;5048514;28;20043;-69
2022/11/21 05:21:42;;;;;;;35.13;18.65;;;3.90;88.90;;;;;;5044314;28;20029;-69
2022/11/21 05:24:08;;;;;;;32.08;16.15;;;3.80;88.70;;;;;;5030108;28;20128;-68
2022/11/21 05:26:33;;;;;;;33.25;16.45;;;3.90;88.90;;;;;;5046066;28;20044;-68
2022/11/21 05:28:59;;;;;;;38.58;15.05;;;3.90;88.80;;;;;;5048306;28;20021;-68
2022/11/21 05:31:24;;;;;;;43.88;18.00;;;4.00;88.80;;;;;;5041048;28;20400;-69
2022/11/21 05:33:50;;;;;;;23.38;13.20;;;4.00;88.60;;;;;;5047231;28;20577;-67
2022/11/21 05:36:15;;;;;;;36.08;17.10;;;4.00;88.50;;;;;;5029953;28;20091;-68
2022/11/21 05:38:41;;;;;;;50.45;16.17;;;3.90;88.30;;;;;;5030195;28;20052;-69
2022/11/21 05:41:07;;;;;;;32.70;14.68;;;4.00;88.60;;;;;;5039608;28;20108;-70
2022/11/21 05:43:45;;;;;;;46.85;14.73;;;4.00;88.60;;;;;;5030457;28;20116;-69
2022/11/21 05:46:16;;;;;;;80.40;18.35;;;4.00;88.40;;;;;;5034938;28;20025;-69
2022/11/21 05:48:41;;;;;;;107.10;17.17;;;3.90;88.50;;;;;;5045376;28;20083;-69
2022/11/21 05:51:10;;;;;;;43.88;14.07;;;4.00;88.70;;;;;;5043675;28;20426;-70
2022/11/21 05:53:36;;;;;;;43.83;18.20;;;4.00;88.70;;;;;;5041150;28;20033;-71
2022/11/21 05:56:06;;;;;;;89.15;16.17;;;4.00;88.70;;;;;;5053422;28;20491;-70
2022/11/21 05:58:32;;;;;;;65.93;15.82;;;4.00;88.90;;;;;;5040464;28;20025;-69
2022/11/21 06:00:58;;;;;;;43.67;16.42;;;4.10;88.80;;;;;;5046120;28;20064;-70
2022/11/21 06:03:29;;;;;;;47.67;16.55;;;4.10;88.60;;;;;;5040645;28;20025;-71
2022/11/21 06:06:04;;;;;;;42.13;19.17;;;4.10;88.60;;;;;;5037731;28;20014;-70
2022/11/21 06:08:36;;;;;;;94.15;18.13;;;4.10;88.60;;;;;;5036073;28;20017;-70
2022/11/21 06:11:02;;;;;;;48.90;14.88;;;4.00;88.90;;;;;;5042942;28;20040;-70
2022/11/21 06:13:29;;;;;;;44.28;15.23;;;4.00;89.20;;;;;;5041138;28;20036;-70
2022/11/21 06:16:02;;;;;;;92.30;18.75;;;3.90;89.20;;;;;;5043045;28;20625;-70
2022/11/21 06:18:31;;;;;;;49.42;19.80;;;4.00;89.30;;;;;;5044413;28;20027;-68
2022/11/21 06:21:02;;;;;;;58.72;18.77;;;3.90;89.40;;;;;;5042986;28;20041;-71
2022/11/21 06:23:27;;;;;;;69.18;19.35;;;3.90;89.60;;;;;;5053772;28;20036;-69
2022/11/21 06:25:58;;;;;;;127.25;17.67;;;3.90;89.70;;;;;;5044374;28;20072;-70
2022/11/21 06:28:25;;;;;;;128.48;23.42;;;4.00;89.90;;;;;;5048748;28;20029;-68
2022/11/21 06:30:50;;;;;;;124.10;22.73;;;3.90;89.80;;;;;;5047681;28;20029;-69
2022/11/21 06:33:17;;;;;;;83.55;21.05;;;4.00;89.90;;;;;;5051663;28;20381;-69
2022/11/21 06:35:43;;;;;;;179.23;23.40;;;4.00;89.90;;;;;;5048735;28;20056;-69
2022/11/21 06:38:08;;;;;;;172.60;23.05;;;4.00;89.80;;;;;;5045797;28;20025;-69
2022/11/21 06:40:34;;;;;;;194.30;24.40;;;4.00;89.70;;;;;;5052032;28;20063;-68
2022/11/21 06:43:00;;;;;;;54.80;18.58;;;4.10;89.70;;;;;;5051167;28;20044;-70
2022/11/21 06:45:26;;;;;;;38.17;15.38;;;4.10;89.50;;;;;;5051111;28;20020;-71
2022/11/21 06:47:51;;;;;;;55.45;18.92;;;4.10;89.70;;;;;;5052690;28;20039;-70
2022/11/21 06:50:17;;;;;;;36.55;18.38;;;4.10;89.60;;;;;;5055509;28;20029;-70
2022/11/21 06:52:43;;;;;;;68.20;18.65;;;4.00;89.60;;;;;;5055033;28;20098;-69
2022/11/21 06:55:09;;;;;;;53.08;20.63;;;4.00;89.90;;;;;;5047958;28;20101;-71
2022/11/21 06:57:35;;;;;;;47.78;19.27;;;4.00;90.00;;;;;;5050468;28;20097;-70
2022/11/21 07:00:01;;;;;;;56.85;19.30;;;4.10;90.10;;;;;;5039291;28;20105;-70
2022/11/21 07:02:27;;;;;;;99.85;17.60;;;4.00;90.20;;;;;;5056484;28;20102;-70
2022/11/21 07:04:53;;;;;;;150.70;17.45;;;4.10;90.30;;;;;;5046588;28;20025;-70
2022/11/21 07:07:18;;;;;;;56.60;19.10;;;4.20;90.30;;;;;;5035723;28;20033;-69
2022/11/21 07:09:46;;;;;;;84.45;21.95;;;4.20;90.20;;;;;;5045028;28;20024;-72
2022/11/21 07:14:55;;;;;;;48.78;19.20;;;4.20;90.20;;;;;;5047628;28;20546;-70
2022/11/21 07:17:21;;;;;;;132.82;22.05;;;4.20;90.20;;;;;;5054821;28;20060;-70
2022/11/21 07:19:47;;;;;;;59.50;16.15;;;4.20;90.30;;;;;;5045616;28;20036;-69
2022/11/21 07:22:12;;;;;;;49.22;17.85;;;4.20;90.30;;;;;;5038975;28;20032;-72
2022/11/21 07:24:38;;;;;;;78.60;20.75;;;4.20;90.30;;;;;;5054718;28;20017;-71
2022/11/21 07:27:04;;;;;;;60.35;16.63;;;4.10;90.30;;;;;;5051435;28;20029;-69
2022/11/21 07:29:29;;;;;;;51.42;19.50;;;4.10;90.40;;;;;;5046986;28;20040;-69
2022/11/21 07:31:55;;;;;;;57.60;17.30;;;4.10;90.50;;;;;;5040666;28;20030;-70
2022/11/21 07:34:21;;;;;;;81.00;18.42;;;4.20;90.60;;;;;;5052402;28;20031;-70
2022/11/21 07:36:46;;;;;;;35.22;16.13;;;4.10;90.60;;;;;;5049288;28;20095;-71
2022/11/21 07:39:12;;;;;;;32.72;16.75;;;4.20;90.60;;;;;;5048327;28;20033;-69
2022/11/21 07:41:37;;;;;;;28.08;15.38;;;4.20;90.60;;;;;;5052374;28;20017;-70
2022/11/21 07:44:03;;;;;;;29.83;15.15;;;4.20;90.60;;;;;;5046590;28;20017;-71
2022/11/21 07:46:28;;;;;;;25.25;14.20;;;4.20;90.50;;;;;;5036963;28;20026;-69
2022/11/21 07:48:54;;;;;;;32.45;14.82;;;4.30;90.50;;;;;;5044578;28;20025;-70
2022/11/21 07:51:19;;;;;;;47.17;17.88;;;4.30;90.40;;;;;;5052938;28;20044;-71
2022/11/21 07:53:45;;;;;;;38.70;16.60;;;4.30;90.40;;;;;;5051701;28;20024;-71
2022/11/21 07:56:11;;;;;;;49.47;14.43;;;4.30;90.40;;;;;;5042906;28;20037;-71
2022/11/21 07:58:37;;;;;;;32.97;14.95;;;4.30;90.40;;;;;;5040932;28;20028;-70
2022/11/21 08:01:06;;;;;;;33.80;16.38;;;4.30;90.40;;;;;;5038045;28;20561;-71
2022/11/21 08:03:32;;;;;;;40.75;17.20;;;4.30;90.40;;;;;;5045034;28;20032;-72
2022/11/21 08:06:01;;;;;;;51.25;17.10;;;4.30;90.40;;;;;;5046558;28;20078;-72
2022/11/21 08:08:26;;;;;;;47.15;18.15;;;4.30;90.40;;;;;;5046118;28;20016;-71
2022/11/21 08:10:52;;;;;;;37.33;17.55;;;4.30;90.40;;;;;;5035420;28;20079;-70
2022/11/21 08:13:18;;;;;;;76.10;20.35;;;4.30;90.40;;;;;;5043051;28;20116;-69
2022/11/21 08:15:43;;;;;;;58.85;18.40;;;4.30;90.50;;;;;;5043571;28;20729;-70
2022/11/21 08:18:11;;;;;;;33.35;15.35;;;4.30;90.40;;;;;;5044395;28;20029;-69
2022/11/21 08:20:37;;;;;;;41.22;18.70;;;4.30;90.50;;;;;;5039137;28;20021;-72
2022/11/21 08:23:03;;;;;;;48.28;16.42;;;4.30;90.60;;;;;;5044324;28;20415;-70
2022/11/21 08:25:29;;;;;;;43.03;16.42;;;4.30;90.60;;;;;;5036936;28;20488;-72
2022/11/21 08:27:58;;;;;;;59.25;17.17;;;4.30;90.60;;;;;;5043951;28;20492;-71
2022/11/21 08:30:24;;;;;;;50.65;16.95;;;4.40;90.70;;;;;;5046309;28;20013;-69
2022/11/21 08:32:50;;;;;;;31.05;15.23;;;4.40;90.60;;;;;;5051235;28;20043;-70
2022/11/21 08:35:16;;;;;;;98.07;20.08;;;4.40;90.60;;;;;;5043787;28;20479;-70
2022/11/21 08:37:42;;;;;;;41.63;17.83;;;4.40;90.60;;;;;;5048441;28;20028;-70
2022/11/21 08:40:08;;;;;;;30.80;13.55;;;4.30;90.70;;;;;;5039191;28;20036;-70
2022/11/21 08:42:34;;;;;;;28.02;14.77;;;4.40;90.70;;;;;;5036504;28;20108;-69
2022/11/21 08:44:59;;;;;;;36.90;17.38;;;4.40;90.70;;;;;;5041851;28;20155;-69
2022/11/21 08:47:25;;;;;;;40.70;13.70;;;4.40;90.60;;;;;;5037942;28;20483;-71
2022/11/21 08:49:50;;;;;;;29.58;14.15;;;4.40;90.70;;;;;;5048909;28;20027;-68
2022/11/21 08:52:16;;;;;;;25.95;12.43;;;4.50;90.70;;;;;;5043771;28;20096;-69
2022/11/21 08:54:43;;;;;;;32.55;11.35;;;4.50;90.60;;;;;;5044675;28;20483;-72
2022/11/21 08:57:09;;;;;;;25.23;11.20;;;4.60;90.60;;;;;;5045853;28;20029;-69
2022/11/21 08:59:35;;;;;;;29.10;14.25;;;4.70;90.50;;;;;;5049121;28;20364;-71
2022/11/21 09:02:01;;;;;;;40.67;15.52;;;4.70;90.40;;;;;;5045937;28;20021;-69
2022/11/21 09:04:26;;;;;;;40.40;13.88;;;4.70;90.40;;;;;;5044957;28;20096;-70
2022/11/21 09:06:52;;;;;;;66.20;16.90;;;4.70;90.40;;;;;;5050292;28;20480;-69
2022/11/21 09:09:17;;;;;;;50.22;16.40;;;4.60;90.30;;;;;;5049389;28;20488;-69
2022/11/21 09:11:43;;;;;;;39.83;14.20;;;4.60;90.40;;;;;;5048973;28;20037;-69
2022/11/21 09:19:36;;;;;;;29.45;13.18;;;4.70;90.60;;;;;;5037349;28;20170;-68
2022/11/21 09:22:02;;;;;;;63.30;12.68;;;4.70;90.50;;;;;;5048173;28;20559;-71
2022/11/21 09:24:28;;;;;;;32.28;11.95;;;4.80;90.50;;;;;;5046286;28;20036;-69
2022/11/21 09:26:53;;;;;;;28.23;13.70;;;4.80;90.50;;;;;;5043308;28;20048;-70
2022/11/21 09:29:19;;;;;;;33.63;12.77;;;4.70;90.40;;;;;;5044273;28;20112;-70
2022/11/21 09:31:45;;;;;;;18.90;8.95;;;4.70;90.70;;;;;;5047111;28;20394;-69
2022/11/21 09:34:10;;;;;;;49.42;12.45;;;4.80;90.50;;;;;;5042635;28;20527;-71
2022/11/21 09:36:36;;;;;;;78.20;15.70;;;4.80;90.50;;;;;;5048923;28;20032;-69
2022/11/21 09:39:02;;;;;;;29.13;11.88;;;4.70;90.40;;;;;;5042709;28;20060;-70
2022/11/21 09:41:50;;;;;;;25.23;12.40;;;4.60;90.60;;;;;;5049280;28;20109;-71
2022/11/21 09:44:52;;;;;;;29.65;12.68;;;4.60;90.90;;;;;;5044142;28;20037;-71
2022/11/21 09:47:30;;;;;;;28.88;12.60;;;4.70;90.90;;;;;;5035945;28;20030;-69
2022/11/21 09:50:04;;;;;;;146.13;19.38;;;4.80;90.90;;;;;;5043313;28;20020;-68
2022/11/21 09:53:00;;;;;;;52.25;14.02;;;4.70;90.90;;;;;;5049267;28;20017;-69
2022/11/21 09:55:33;;;;;;;24.48;12.98;;;4.70;91.10;;;;;;5038290;28;20032;-70
2022/11/21 09:58:31;;;;;;;32.80;15.07;;;4.80;91.20;;;;;;5046421;28;20025;-70
2022/11/21 10:00:57;;;;;;;62.15;15.35;;;4.80;91.20;;;;;;5040272;28;20047;-70
2022/11/21 10:03:39;;;;;;;53.80;16.60;;;4.70;91.30;;;;;;5048705;28;20476;-69
2022/11/21 10:06:19;;;;;;;60.10;15.07;;;4.80;91.40;;;;;;5043072;28;20036;-70
2022/11/21 10:09:08;;;;;;;36.53;13.38;;;4.80;91.40;;;;;;5048917;28;20035;-69
2022/11/21 10:11:36;;;;;;;55.85;17.15;;;4.90;91.70;;;;;;5040782;28;20032;-70
2022/11/21 10:14:20;;;;;;;36.50;15.98;;;5.00;91.40;;;;;;5042567;28;20079;-71
2022/11/21 10:16:58;;;;;;;88.22;17.60;;;5.00;91.40;;;;;;5047355;28;20029;-70
2022/11/21 10:19:41;;;;;;;139.73;21.23;;;5.00;91.50;;;;;;5043598;28;20029;-69
2022/11/21 10:23:01;;;;;;;55.47;16.38;;;5.00;91.50;;;;;;5047047;28;20020;-69
2022/11/21 10:25:37;;;;;;;103.25;17.98;;;5.10;91.70;;;;;;5022630;28;20515;-70
2022/11/21 10:28:06;;;;;;;113.35;19.95;;;5.20;91.60;;;;;;5039818;28;20373;-70
2022/11/21 10:30:33;;;;;;;71.97;15.57;;;5.20;91.60;;;;;;5044931;28;20046;-69
2022/11/21 10:33:03;;;;;;;60.92;18.10;;;5.30;91.70;;;;;;5041931;28;20029;-72
2022/11/21 10:35:42;;;;;;;72.28;18.13;;;5.30;91.60;;;;;;5042369;28;20036;-70
2022/11/21 10:38:25;;;;;;;36.50;14.52;;;5.30;91.60;;;;;;5044958;28;20039;-69
2022/11/21 10:41:29;;;;;;;97.47;19.65;;;5.40;91.60;;;;;;5041553;28;20021;-71
2022/11/21 10:47:26;;;;;;;79.35;17.38;;;5.40;91.70;;;;;;5042615;28;20095;-69
2022/11/21 10:50:08;;;;;;;34.17;16.70;;;5.50;91.70;;;;;;5042130;28;20503;-69
2022/11/21 10:52:38;;;;;;;238.23;24.33;;;5.60;91.70;;;;;;5043933;28;20375;-69
2022/11/21 10:55:03;;;;;;;65.38;18.25;;;5.60;91.70;;;;;;5046077;28;20078;-69
2022/11/21 10:57:44;;;;;;;62.60;17.30;;;5.60;91.70;;;;;;5043081;28;20037;-71
2022/11/21 11:00:13;;;;;;;68.45;16.95;;;5.70;91.70;;;;;;5045353;28;20149;-71
2022/11/21 11:02:40;;;;;;;57.47;17.98;;;5.80;91.70;;;;;;5037976;28;20103;-69
2022/11/21 11:05:19;;;;;;;77.03;17.25;;;5.80;91.60;;;;;;5039454;28;20036;-70
2022/11/21 11:08:08;;;;;;;36.58;13.00;;;5.90;91.60;;;;;;5034418;28;20093;-70
2022/11/21 11:10:42;;;;;;;50.60;18.02;;;5.90;91.60;;;;;;5039466;28;20085;-69
2022/11/21 11:13:35;;;;;;;41.58;13.13;;;5.90;91.60;;;;;;5039492;28;20065;-71
2022/11/21 11:16:10;;;;;;;32.72;11.73;;;5.90;91.70;;;;;;5044949;28;20539;-70
2022/11/21 11:18:44;;;;;;;29.58;14.38;;;6.00;91.70;;;;;;5043122;28;20094;-69
2022/11/21 11:21:16;;;;;;;79.75;16.05;;;6.10;91.70;;;;;;5041492;28;20106;-70
2022/11/21 11:23:42;;;;;;;39.60;12.70;;;6.10;91.60;;;;;;5048217;28;20029;-69
2022/11/21 11:26:46;;;;;;;40.30;15.93;;;6.20;91.60;;;;;;5043768;28;20044;-69
2022/11/21 11:29:17;;;;;;;35.22;16.17;;;6.20;91.60;;;;;;5032615;28;20069;-69
2022/11/21 11:31:57;;;;;;;29.67;14.23;;;6.30;91.50;;;;;;5043554;28;20101;-69
2022/11/21 11:34:27;;;;;;;37.47;17.65;;;6.40;91.50;;;;;;5031580;28;20407;-69
2022/11/21 11:37:18;;;;;;;38.05;16.75;;;6.40;91.40;;;;;;5040453;28;20029;-70
2022/11/21 11:40:02;;;;;;;31.23;15.95;;;6.40;91.50;;;;;;5039872;28;20033;-70
2022/11/21 11:48:29;;;;;;;40.03;18.88;;;6.70;91.50;;;;;;5037702;28;20412;-70
2022/11/21 11:51:02;;;;;;;39.40;19.83;;;6.70;91.40;;;;;;5037761;28;20368;-71
2022/11/21 11:53:44;;;;;;;34.63;17.98;;;6.70;91.50;;;;;;5043388;28;20028;-69
2022/11/21 11:56:22;;;;;;;40.00;18.70;;;6.80;91.80;;;;;;5050033;28;20033;-69
2022/11/21 11:58:54;;;;;;;37.90;20.60;;;6.90;91.40;;;;;;5038432;28;20029;-69
2022/11/21 12:01:39;;;;;;;37.20;19.40;;;6.90;91.40;;;;;;5047432;28;20044;-70
2022/11/21 12:04:20;;;;;;;33.05;17.80;;;7.00;91.40;;;;;;5050792;28;20040;-70
2022/11/21 12:06:48;;;;;;;32.67;17.63;;;7.10;91.30;;;;;;5035267;28;20563;-69
2022/11/21 12:09:51;;;;;;;37.83;19.63;;;7.10;91.30;;;;;;5048120;28;20383;-68
2022/11/21 12:12:48;;;;;;;36.10;20.25;;;7.20;91.30;;;;;;5045430;28;20087;-71
2022/11/21 12:18:18;;;;;;;42.67;21.85;;;7.20;91.20;;;;;;5047263;28;20048;-71
2022/11/21 12:20:57;;;;;;;39.40;22.50;;;7.20;91.30;;;;;;5044544;28;20495;-69
2022/11/21 12:23:35;;;;;;;34.72;18.88;;;7.20;91.40;;;;;;5043044;28;20029;-71
2022/11/21 12:26:16;;;;;;;41.47;21.65;;;7.30;91.40;;;;;;5044099;28;20017;-69
2022/11/21 12:29:03;;;;;;;40.15;22.70;;;7.30;91.30;;;;;;5042862;28;20537;-70
2022/11/21 12:31:50;;;;;;;33.50;18.60;;;7.30;91.20;;;;;;5044019;28;20049;-69
2022/11/21 12:34:52;;;;;;;36.90;19.85;;;7.40;91.30;;;;;;5048017;28;20044;-69
2022/11/21 12:37:46;;;;;;;40.00;21.55;;;7.50;91.30;;;;;;5048299;28;20048;-72
2022/11/21 12:40:34;;;;;;;41.10;23.42;;;7.50;91.20;;;;;;5041296;28;20029;-69
2022/11/21 12:43:15;;;;;;;40.83;21.45;;;7.50;91.10;;;;;;5046963;28;20053;-69
2022/11/21 12:46:16;;;;;;;40.92;22.67;;;7.60;91.20;;;;;;5044289;28;20017;-69
2022/11/21 12:54:53;;;;;;;;;;;7.60;91.20;;;;;;5044420;28;20044;-69
2022/11/21 12:57:24;;;;;;;38.67;20.95;;;7.70;91.10;;;;;;5041864;28;19986;-69
2022/11/21 13:00:08;;;;;;;38.30;21.83;;;7.70;91.10;;;;;;5046209;28;20024;-69
2022/11/21 13:02:40;;;;;;;30.88;18.38;;;7.70;91.20;;;;;;5038655;28;20492;-69
2022/11/21 13:05:11;;;;;;;35.92;20.27;;;7.70;91.20;;;;;;5043125;28;20037;-69
2022/11/21 13:07:38;;;;;;;31.85;18.88;;;7.80;91.40;;;;;;5046112;28;20668;-69
2022/11/21 13:10:09;;;;;;;27.35;16.33;;;7.80;91.10;;;;;;5041250;28;20057;-69
2022/11/21 13:12:47;;;;;;;35.25;22.85;;;7.80;91.10;;;;;;5047623;28;20017;-69
2022/11/21 13:15:21;;;;;;;30.00;19.77;;;7.80;91.20;;;;;;5048564;28;20021;-69
2022/11/21 13:17:57;;;;;;;34.30;20.30;;;7.80;91.20;;;;;;5035254;28;20395;-68
2022/11/21 13:20:44;;;;;;;30.70;18.40;;;7.80;91.20;;;;;;5036746;28;20117;-69